Time;durP1;ratioP1;P1;durP2;ratioP2;P2;SDS_P1;SDS_P2;PMS_P1;PMS_P2;Temp;Humidity;BMP_temperature;BMP_pressure;BME280_temperature;BME280_humidity;BME280_pressure;Samples;Min_cycle;Max_cycle;Signal;HPM_P1;HPM_P2
2023/12/06 00:00:27;;;;;;;6.93;1.92;;;;;;;2.14;100.00;96159.53;5075100;28;20044;-70
2023/12/06 00:02:53;;;;;;;6.45;2.53;;;;;;;2.07;100.00;96168.16;5071149;28;20576;-70
2023/12/06 00:05:18;;;;;;;5.80;2.35;;;;;;;2.12;100.00;96166.38;5065401;28;20045;-70
2023/12/06 00:07:43;;;;;;;3.22;1.98;;;;;;;2.15;100.00;96161.13;5073159;28;20453;-70
2023/12/06 00:10:09;;;;;;;2.78;2.00;;;;;;;2.17;100.00;96166.22;5057580;28;20040;-68
2023/12/06 00:12:35;;;;;;;11.25;5.97;;;;;;;2.16;100.00;96160.03;5077796;28;20106;-70
2023/12/06 00:15:00;;;;;;;10.13;3.78;;;;;;;2.12;100.00;96169.88;5076554;28;20032;-69
2023/12/06 00:17:25;;;;;;;3.97;2.38;;;;;;;2.11;100.00;96168.31;5073133;28;20471;-70
2023/12/06 00:19:51;;;;;;;5.45;2.35;;;;;;;2.13;100.00;96167.97;5069878;28;20041;-69
2023/12/06 00:22:16;;;;;;;7.25;2.60;;;;;;;2.15;100.00;96169.22;5064176;28;20140;-70
2023/12/06 00:24:41;;;;;;;6.65;2.10;;;;;;;2.19;100.00;96166.66;5067673;28;20768;-72
2023/12/06 00:27:07;;;;;;;4.57;2.40;;;;;;;2.15;100.00;96171.94;5063371;28;20036;-69
2023/12/06 00:29:32;;;;;;;4.15;2.33;;;;;;;2.11;100.00;96168.31;5063033;28;20054;-72
2023/12/06 00:31:57;;;;;;;3.80;2.25;;;;;;;2.11;100.00;96162.91;5073696;28;20095;-72
2023/12/06 00:34:23;;;;;;;6.65;2.20;;;;;;;2.17;100.00;96169.69;5065403;28;20565;-72
2023/12/06 00:36:48;;;;;;;7.40;2.17;;;;;;;2.15;100.00;96168.44;5066755;28;20043;-70
2023/12/06 00:39:14;;;;;;;7.03;2.05;;;;;;;2.16;100.00;96170.81;5069525;28;20035;-72
2023/12/06 00:41:40;;;;;;;3.90;2.53;;;;;;;2.18;100.00;96170.47;5063425;28;20036;-70
2023/12/06 00:44:06;;;;;;;3.90;2.20;;;;;;;2.13;100.00;96168.75;5068280;28;20827;-71
2023/12/06 00:46:31;;;;;;;7.88;2.30;;;;;;;2.09;100.00;96170.53;5061630;28;20071;-70
2023/12/06 00:48:58;;;;;;;4.28;2.10;;;;;;;2.09;100.00;96171.31;5065113;28;20455;-72
2023/12/06 00:51:24;;;;;;;5.40;2.30;;;;;;;2.18;100.00;96165.88;5063373;28;20532;-72
2023/12/06 00:53:50;;;;;;;5.53;2.58;;;;;;;2.10;100.00;96169.41;5059435;28;20033;-72
2023/12/06 00:56:15;;;;;;;7.25;2.17;;;;;;;2.05;100.00;96172.28;5061899;28;20135;-72
2023/12/06 00:58:44;;;;;;;4.32;2.15;;;;;;;2.07;100.00;96178.97;5065132;28;20036;-70
2023/12/06 01:01:11;;;;;;;7.07;2.20;;;;;;;2.10;100.00;96172.09;5059024;28;20439;-72
2023/12/06 01:03:37;;;;;;;6.10;2.35;;;;;;;2.09;100.00;96173.25;5069525;28;20216;-71
2023/12/06 01:06:03;;;;;;;9.90;2.38;;;;;;;2.07;100.00;96172.75;5063574;28;20032;-71
2023/12/06 01:08:29;;;;;;;5.85;2.35;;;;;;;2.07;100.00;96176.25;5062345;28;20040;-70
2023/12/06 01:10:54;;;;;;;8.55;3.15;;;;;;;2.05;100.00;96180.38;5056474;28;20040;-69
2023/12/06 01:13:20;;;;;;;5.82;2.42;;;;;;;2.03;100.00;96177.22;5063992;28;20032;-72
2023/12/06 01:15:45;;;;;;;4.50;2.13;;;;;;;2.03;100.00;96182.63;5066316;28;20037;-72
2023/12/06 01:18:10;;;;;;;5.13;2.08;;;;;;;2.06;100.00;96181.97;5071312;28;20043;-72
2023/12/06 01:20:39;;;;;;;3.85;2.17;;;;;;;2.08;100.00;96187.84;5041087;28;20033;-71
2023/12/06 01:23:05;;;;;;;4.95;2.00;;;;;;;2.13;100.00;96178.78;5063020;28;20582;-70
2023/12/06 01:25:34;;;;;;;6.47;2.00;;;;;;;2.13;100.00;96184.19;5042460;28;20040;-72
2023/12/06 01:28:00;;;;;;;3.28;1.73;;;;;;;2.13;100.00;96187.69;5046633;28;20045;-71
2023/12/06 01:30:25;;;;;;;7.93;1.92;;;;;;;2.15;100.00;96188.13;5063495;28;20032;-72
2023/12/06 01:32:51;;;;;;;3.80;2.15;;;;;;;2.18;100.00;96192.91;5043346;28;20082;-71
2023/12/06 01:35:16;;;;;;;5.55;2.15;;;;;;;2.21;100.00;96188.75;5063882;28;20664;-72
2023/12/06 01:37:42;;;;;;;4.43;2.17;;;;;;;2.21;100.00;96183.34;5063482;28;20109;-70
2023/12/06 01:40:08;;;;;;;4.38;2.15;;;;;;;2.20;100.00;96187.97;5059275;28;20043;-71
2023/12/06 01:42:34;;;;;;;3.55;2.20;;;;;;;2.19;100.00;96188.28;5069268;28;20122;-73
2023/12/06 01:45:00;;;;;;;7.55;2.10;;;;;;;2.13;100.00;96193.06;5070524;28;20042;-70
2023/12/06 01:47:27;;;;;;;5.97;2.10;;;;;;;2.14;100.00;96189.25;5071994;28;20390;-70
2023/12/06 01:49:54;;;;;;;3.13;1.77;;;;;;;2.15;100.00;96187.34;5065482;28;20070;-70
2023/12/06 01:52:20;;;;;;;8.65;2.30;;;;;;;2.19;100.00;96197.19;5056709;28;20540;-69
2023/12/06 01:54:45;;;;;;;5.57;1.45;;;;;;;2.26;100.00;96202.88;5067093;28;20533;-69
2023/12/06 01:57:11;;;;;;;5.78;2.00;;;;;;;2.28;100.00;96205.25;5054904;28;20037;-70
2023/12/06 01:59:39;;;;;;;8.32;1.88;;;;;;;2.24;100.00;96207.03;5080916;28;20051;-71
2023/12/06 02:02:05;;;;;;;7.15;1.75;;;;;;;2.40;100.00;96199.16;5069635;28;20051;-71
2023/12/06 02:04:32;;;;;;;2.80;1.77;;;;;;;2.33;100.00;96204.28;5068760;28;20040;-70
2023/12/06 02:06:57;;;;;;;5.25;1.75;;;;;;;2.42;100.00;96218.53;5065578;28;20032;-71
2023/12/06 02:09:23;;;;;;;2.60;1.90;;;;;;;2.43;100.00;96217.41;5057474;28;20562;-70
2023/12/06 02:11:49;;;;;;;5.75;1.90;;;;;;;2.42;100.00;96211.22;5063058;28;20386;-70
2023/12/06 02:14:15;;;;;;;4.72;1.90;;;;;;;2.49;100.00;96221.53;5064252;28;20035;-70
2023/12/06 02:16:41;;;;;;;4.80;1.95;;;;;;;2.47;100.00;96221.06;5066302;28;20037;-69
2023/12/06 02:19:08;;;;;;;5.93;2.22;;;;;;;2.41;100.00;96219.66;5074715;28;20080;-71
2023/12/06 02:21:33;;;;;;;5.07;1.60;;;;;;;2.35;100.00;96215.56;5074938;28;20075;-70
2023/12/06 02:23:59;;;;;;;4.35;1.90;;;;;;;2.41;100.00;96217.75;5076583;28;20068;-71
2023/12/06 02:26:24;;;;;;;4.38;1.73;;;;;;;2.36;100.00;96222.53;5046117;28;20109;-70
2023/12/06 02:28:54;;;;;;;8.32;2.22;;;;;;;2.29;100.00;96218.44;5074797;28;20040;-70
2023/12/06 02:31:20;;;;;;;7.20;1.80;;;;;;;2.27;100.00;96220.69;5075879;28;20046;-70
2023/12/06 02:33:47;;;;;;;6.53;1.70;;;;;;;2.24;100.00;96221.31;5083076;28;20040;-70
2023/12/06 02:36:13;;;;;;;5.68;1.55;;;;;;;2.32;100.00;96218.91;5078058;28;20047;-70
2023/12/06 02:38:40;;;;;;;9.75;2.28;;;;;;;2.26;100.00;96210.97;5082718;28;20055;-70
2023/12/06 02:41:10;;;;;;;5.22;1.60;;;;;;;2.21;100.00;96210.38;5059897;28;20043;-69
2023/12/06 02:43:35;;;;;;;2.38;1.55;;;;;;;2.21;100.00;96213.84;5082095;28;22216;-70
2023/12/06 02:46:01;;;;;;;3.38;1.92;;;;;;;2.27;100.00;96217.19;5082745;28;20040;-69
2023/12/06 02:48:26;;;;;;;7.47;2.83;;;;;;;2.27;100.00;96219.91;5075356;28;20449;-70
2023/12/06 02:50:51;;;;;;;4.55;1.65;;;;;;;2.31;100.00;96220.03;5062037;28;20613;-70
2023/12/06 02:53:17;;;;;;;3.35;1.60;;;;;;;2.42;100.00;96215.84;5057124;28;20044;-70
2023/12/06 02:55:42;;;;;;;3.80;1.85;;;;;;;2.37;100.00;96213.31;5062251;28;20037;-69
2023/12/06 02:58:09;;;;;;;3.17;1.67;;;;;;;2.41;100.00;96216.94;5047367;28;20676;-69
2023/12/06 03:00:34;;;;;;;15.70;5.35;;;;;;;2.43;100.00;96214.72;5062987;28;20136;-69
2023/12/06 03:02:59;;;;;;;3.88;2.10;;;;;;;2.44;100.00;96211.69;5077007;28;20392;-70
2023/12/06 03:05:25;;;;;;;6.07;2.20;;;;;;;2.46;100.00;96205.97;5067101;28;20430;-70
2023/12/06 03:07:50;;;;;;;5.65;1.63;;;;;;;2.51;100.00;96210.41;5061524;28;20040;-71
2023/12/06 03:10:16;;;;;;;4.93;1.73;;;;;;;2.42;100.00;96210.44;5065379;28;20186;-70
2023/12/06 03:12:41;;;;;;;6.70;1.90;;;;;;;2.43;100.00;96218.22;5054866;28;20044;-71
2023/12/06 03:15:07;;;;;;;4.93;1.70;;;;;;;2.43;100.00;96214.72;5067754;28;20037;-72
2023/12/06 03:17:32;;;;;;;4.97;1.88;;;;;;;2.43;100.00;96207.41;5065120;28;20042;-71
2023/12/06 03:19:58;;;;;;;3.13;1.80;;;;;;;2.47;100.00;96205.63;5069569;28;20063;-71
2023/12/06 03:22:24;;;;;;;8.07;2.15;;;;;;;2.48;100.00;96201.81;5059910;28;20783;-71
2023/12/06 03:24:49;;;;;;;3.05;1.60;;;;;;;2.47;100.00;96212.97;5061996;28;20067;-71
2023/12/06 03:27:14;;;;;;;6.88;1.60;;;;;;;2.43;100.00;96217.41;5063752;28;20494;-71
2023/12/06 03:29:40;;;;;;;4.20;1.60;;;;;;;2.43;100.00;96210.13;5061216;28;20372;-71
2023/12/06 03:32:06;;;;;;;7.57;2.13;;;;;;;2.42;100.00;96218.53;5053375;28;20040;-70
2023/12/06 03:34:31;;;;;;;6.05;2.70;;;;;;;2.41;100.00;96220.47;5060177;28;20060;-70
2023/12/06 03:36:58;;;;;;;5.50;1.73;;;;;;;2.54;100.00;96212.44;5062280;28;20033;-70
2023/12/06 03:39:23;;;;;;;9.50;2.00;;;;;;;2.46;100.00;96214.84;5055542;28;20041;-70
2023/12/06 03:41:49;;;;;;;4.80;2.00;;;;;;;2.52;100.00;96220.06;5066548;28;20032;-70
2023/12/06 03:44:14;;;;;;;6.18;2.10;;;;;;;2.46;100.00;96222.97;5060812;28;20051;-69
2023/12/06 03:46:39;;;;;;;3.42;1.52;;;;;;;2.44;100.00;96222.50;5070029;28;20048;-71
2023/12/06 03:49:05;;;;;;;3.60;1.40;;;;;;;2.44;100.00;96229.81;5056961;28;20044;-69
2023/12/06 03:51:30;;;;;;;5.88;1.63;;;;;;;2.41;100.00;96231.28;5069870;28;20040;-69
2023/12/06 03:53:56;;;;;;;6.03;1.60;;;;;;;2.40;100.00;96232.38;5065169;28;20363;-69
2023/12/06 03:56:21;;;;;;;4.60;1.80;;;;;;;2.38;100.00;96237.31;5044646;28;23448;-70
2023/12/06 03:58:47;;;;;;;3.38;1.70;;;;;;;2.39;100.00;96232.69;5064576;28;20534;-70
2023/12/06 04:01:12;;;;;;;2.63;1.50;;;;;;;2.35;100.00;96229.06;5056200;28;20039;-68
2023/12/06 04:03:40;;;;;;;3.95;1.80;;;;;;;2.37;100.00;96233.03;5067156;28;20047;-68
2023/12/06 04:06:07;;;;;;;5.35;1.85;;;;;;;2.21;100.00;96243.56;5084031;28;20048;-69
2023/12/06 04:08:32;;;;;;;9.73;1.90;;;;;;;2.20;100.00;96233.91;5048624;28;20044;-69
2023/12/06 04:10:57;;;;;;;3.65;2.05;;;;;;;2.22;100.00;96233.59;5065730;28;20032;-69
2023/12/06 04:13:23;;;;;;;3.95;2.00;;;;;;;2.14;100.00;96237.88;5058145;28;20207;-69
2023/12/06 04:15:48;;;;;;;5.75;1.83;;;;;;;2.13;100.00;96238.22;5042508;28;20068;-69
2023/12/06 04:18:13;;;;;;;6.78;2.38;;;;;;;2.24;100.00;96242.16;5063912;28;20044;-69
2023/12/06 04:20:39;;;;;;;5.80;1.92;;;;;;;2.13;100.00;96240.94;5067959;28;20395;-70
2023/12/06 04:23:04;;;;;;;14.25;4.50;;;;;;;2.09;100.00;96241.56;5061485;28;20119;-70
2023/12/06 04:25:29;;;;;;;5.10;2.05;;;;;;;2.09;100.00;96244.25;5062636;28;20114;-70
2023/12/06 04:27:55;;;;;;;4.55;1.70;;;;;;;2.09;100.00;96241.56;5063156;28;20051;-70
2023/12/06 04:30:20;;;;;;;7.22;1.88;;;;;;;2.08;100.00;96245.38;5076578;28;20052;-70
2023/12/06 04:32:46;;;;;;;2.78;1.80;;;;;;;2.04;100.00;96247.13;5080691;28;20040;-70
2023/12/06 04:35:11;;;;;;;8.88;2.10;;;;;;;2.11;100.00;96252.06;5074931;28;20040;-70
2023/12/06 04:37:37;;;;;;;3.95;1.83;;;;;;;2.04;100.00;96249.84;5081448;28;20063;-70
2023/12/06 04:40:04;;;;;;;4.68;1.60;;;;;;;2.14;100.00;96253.31;5072540;28;20131;-70
2023/12/06 04:42:29;;;;;;;6.15;1.83;;;;;;;2.13;100.00;96249.03;5051528;28;20044;-68
2023/12/06 04:44:55;;;;;;;6.63;1.80;;;;;;;2.26;100.00;96248.81;5081296;28;20039;-71
2023/12/06 04:47:20;;;;;;;4.03;1.67;;;;;;;2.17;100.00;96241.84;5075925;28;20043;-73
2023/12/06 04:49:45;;;;;;;3.90;1.85;;;;;;;2.08;100.00;96255.38;5050897;28;20028;-70
2023/12/06 04:52:11;;;;;;;6.13;1.67;;;;;;;2.04;100.00;96260.63;5066322;28;20885;-69
2023/12/06 04:54:36;;;;;;;6.03;1.70;;;;;;;2.00;100.00;96256.19;5064330;28;20148;-72
2023/12/06 04:57:01;;;;;;;2.92;1.85;;;;;;;2.01;100.00;96257.78;5073978;28;20036;-69
2023/12/06 04:59:27;;;;;;;5.00;1.90;;;;;;;1.99;100.00;96268.91;5057560;28;20610;-70
2023/12/06 05:01:53;;;;;;;5.28;1.77;;;;;;;2.06;100.00;96263.81;5085019;28;20043;-70
2023/12/06 05:04:19;;;;;;;5.53;2.08;;;;;;;2.00;100.00;96269.69;5075231;28;20031;-70
2023/12/06 05:06:44;;;;;;;6.07;2.00;;;;;;;1.96;100.00;96272.25;5067601;28;20043;-69
2023/12/06 05:09:10;;;;;;;7.40;2.30;;;;;;;1.98;100.00;96274.63;5054498;28;20032;-69
2023/12/06 05:11:36;;;;;;;7.50;1.80;;;;;;;1.88;100.00;96273.06;5069650;28;20040;-70
2023/12/06 05:14:02;;;;;;;4.88;1.98;;;;;;;1.89;100.00;96271.94;5071976;28;20190;-70
2023/12/06 05:16:28;;;;;;;2.88;1.75;;;;;;;1.89;100.00;96277.34;5057511;28;20135;-69
2023/12/06 05:18:53;;;;;;;5.05;1.70;;;;;;;1.81;100.00;96278.16;5079213;28;20482;-69
2023/12/06 05:21:19;;;;;;;5.32;1.77;;;;;;;1.80;100.00;96281.97;5076345;28;20036;-69
2023/12/06 05:23:44;;;;;;;5.53;1.77;;;;;;;1.88;100.00;96281.19;5077185;28;20044;-70
2023/12/06 05:26:09;;;;;;;6.30;2.60;;;;;;;1.85;100.00;96284.50;5074951;28;20040;-70
2023/12/06 05:28:35;;;;;;;3.13;2.15;;;;;;;1.89;100.00;96280.84;5061200;28;20059;-69
2023/12/06 05:31:00;;;;;;;4.57;2.00;;;;;;;1.99;100.00;96277.00;5079606;28;20115;-69
2023/12/06 05:33:27;;;;;;;5.03;2.10;;;;;;;1.85;100.00;96279.09;5076016;28;20048;-70
2023/12/06 05:35:52;;;;;;;5.82;2.25;;;;;;;1.75;100.00;96282.94;5078655;28;20048;-68
2023/12/06 05:38:18;;;;;;;3.13;1.92;;;;;;;1.79;100.00;96281.19;5064283;28;20049;-69
2023/12/06 05:40:43;;;;;;;4.15;1.85;;;;;;;1.74;100.00;96284.03;5077213;28;20040;-70
2023/12/06 05:43:08;;;;;;;5.47;2.00;;;;;;;1.70;100.00;96294.69;5072786;28;20491;-70
2023/12/06 05:45:34;;;;;;;7.03;2.40;;;;;;;1.79;100.00;96291.19;5078848;28;20131;-69
2023/12/06 05:47:59;;;;;;;2.97;1.63;;;;;;;1.86;100.00;96294.22;5065915;28;20044;-70
2023/12/06 05:50:25;;;;;;;3.00;1.80;;;;;;;1.85;100.00;96292.59;5071127;28;20048;-70
2023/12/06 05:52:51;;;;;;;4.57;1.92;;;;;;;1.86;100.00;96289.59;5056956;28;20071;-69
2023/12/06 05:55:16;;;;;;;6.43;2.35;;;;;;;1.96;100.00;96291.16;5060251;28;20036;-69
2023/12/06 05:57:42;;;;;;;5.25;1.90;;;;;;;1.87;100.00;96291.19;5064820;28;20040;-71
2023/12/06 06:00:12;;;;;;;7.93;2.05;;;;;;;1.87;100.00;96293.09;5079154;28;20032;-69
2023/12/06 06:02:43;;;;;;;4.85;2.25;;;;;;;1.93;100.00;96291.81;5075059;28;20123;-70
2023/12/06 06:05:09;;;;;;;4.70;1.95;;;;;;;1.93;100.00;96302.63;5079051;28;20043;-69
2023/12/06 06:07:34;;;;;;;6.68;3.25;;;;;;;1.90;100.00;96298.63;5072427;28;20577;-70
2023/12/06 06:10:00;;;;;;;4.28;2.40;;;;;;;1.93;100.00;96302.63;5075596;28;20075;-69
2023/12/06 06:12:25;;;;;;;6.40;3.05;;;;;;;1.87;100.00;96303.88;5066532;28;20086;-69
2023/12/06 06:14:51;;;;;;;4.68;1.80;;;;;;;1.88;100.00;96295.47;5050062;28;20033;-72
2023/12/06 06:17:16;;;;;;;3.92;1.90;;;;;;;2.02;100.00;96298.00;5043094;28;20039;-71
2023/12/06 06:19:42;;;;;;;7.53;2.10;;;;;;;2.06;100.00;96290.03;5082523;28;20043;-70
2023/12/06 06:22:07;;;;;;;7.32;2.25;;;;;;;2.16;100.00;96300.50;5070655;28;20589;-71
2023/12/06 06:24:33;;;;;;;3.58;1.73;;;;;;;2.10;100.00;96296.38;5071797;28;20135;-70
2023/12/06 06:26:58;;;;;;;4.70;1.83;;;;;;;2.05;100.00;96310.88;5082507;28;20028;-70
2023/12/06 06:29:24;;;;;;;3.40;1.90;;;;;;;2.15;100.00;96307.03;5069038;28;20516;-72
2023/12/06 06:31:49;;;;;;;8.63;2.50;;;;;;;2.16;100.00;96313.22;5078547;28;20048;-71
2023/12/06 06:34:14;;;;;;;4.93;2.03;;;;;;;2.32;100.00;96311.56;5059023;28;20067;-71
2023/12/06 06:36:40;;;;;;;5.53;2.70;;;;;;;2.34;100.00;96309.38;5072304;28;20605;-72
2023/12/06 06:39:05;;;;;;;5.15;2.22;;;;;;;2.36;100.00;96317.13;5078812;28;20036;-71
2023/12/06 06:41:31;;;;;;;5.45;2.75;;;;;;;2.34;100.00;96317.47;5073352;28;20052;-70
2023/12/06 06:43:56;;;;;;;4.65;2.50;;;;;;;2.39;100.00;96316.50;5069068;28;20259;-70
2023/12/06 06:46:21;;;;;;;5.90;2.53;;;;;;;2.31;100.00;96314.63;5071468;28;20063;-72
2023/12/06 06:48:48;;;;;;;4.05;2.17;;;;;;;2.28;100.00;96316.03;5065211;28;20044;-68
2023/12/06 06:51:13;;;;;;;5.90;2.22;;;;;;;2.17;100.00;96317.50;5070632;28;20040;-70
2023/12/06 06:53:39;;;;;;;5.93;2.83;;;;;;;2.22;100.00;96315.44;5054247;28;20051;-71
2023/12/06 06:56:05;;;;;;;7.65;2.42;;;;;;;2.21;100.00;96319.22;5063689;28;20036;-70
2023/12/06 06:58:30;;;;;;;7.82;2.17;;;;;;;2.19;100.00;96321.47;5069155;28;20102;-71
2023/12/06 07:00:55;;;;;;;3.60;2.00;;;;;;;2.21;100.00;96316.53;5066175;28;20028;-71
2023/12/06 07:03:21;;;;;;;5.10;2.05;;;;;;;2.28;100.00;96324.94;5068973;28;20443;-71
2023/12/06 07:05:46;;;;;;;5.47;2.35;;;;;;;2.19;100.00;96326.09;5072582;28;20051;-71
2023/12/06 07:08:12;;;;;;;5.50;2.28;;;;;;;2.16;100.00;96332.13;5061685;28;20036;-69
2023/12/06 07:10:38;;;;;;;7.07;2.08;;;;;;;2.10;100.00;96335.00;5070153;28;20049;-69
2023/12/06 07:13:04;;;;;;;6.93;2.20;;;;;;;2.04;100.00;96335.50;5059659;28;20036;-69
2023/12/06 07:15:30;;;;;;;4.05;2.60;;;;;;;1.99;100.00;96349.16;5044429;28;20044;-70
2023/12/06 07:17:56;;;;;;;4.93;2.10;;;;;;;2.04;100.00;96343.59;5056403;28;20036;-70
2023/12/06 07:20:24;;;;;;;4.10;2.30;;;;;;;2.12;100.00;96345.47;5061723;28;20459;-70
2023/12/06 07:22:49;;;;;;;5.72;2.30;;;;;;;2.14;100.00;96345.94;5077785;28;20103;-72
2023/12/06 07:25:15;;;;;;;11.40;4.47;;;;;;;2.14;100.00;96345.94;5069141;28;20587;-70
2023/12/06 07:27:44;;;;;;;6.15;3.63;;;;;;;2.25;100.00;96341.81;5069509;28;20044;-69
2023/12/06 07:30:16;;;;;;;6.57;2.20;;;;;;;2.23;100.00;96351.34;5069904;28;20040;-71
2023/12/06 07:32:42;;;;;;;4.50;2.22;;;;;;;2.22;100.00;96355.19;5064962;28;20075;-71
2023/12/06 07:35:08;;;;;;;5.68;2.53;;;;;;;2.22;100.00;96358.66;5069647;28;20183;-69
2023/12/06 07:37:33;;;;;;;5.55;2.83;;;;;;;2.19;100.00;96366.63;5071489;28;20044;-69
2023/12/06 07:39:59;;;;;;;10.05;2.92;;;;;;;2.27;100.00;96363.91;5063487;28;20028;-70
2023/12/06 07:42:24;;;;;;;7.07;2.65;;;;;;;2.37;100.00;96361.97;5072630;28;20652;-70
2023/12/06 07:44:50;;;;;;;5.20;2.70;;;;;;;2.37;100.00;96360.06;5086282;28;20051;-70
2023/12/06 07:47:18;;;;;;;9.70;3.63;;;;;;;2.53;100.00;96371.16;5081725;28;20048;-70
2023/12/06 07:49:43;;;;;;;10.95;3.42;;;;;;;2.45;100.00;96364.66;5064370;28;20044;-70
2023/12/06 07:52:08;;;;;;;7.55;3.58;;;;;;;2.50;100.00;96369.09;5077203;28;20456;-70
2023/12/06 07:54:34;;;;;;;6.45;2.95;;;;;;;2.78;100.00;96358.66;5053300;28;20494;-70
2023/12/06 07:56:59;;;;;;;8.98;3.20;;;;;;;2.69;100.00;96366.03;5063869;28;20103;-70
2023/12/06 07:59:25;;;;;;;8.00;3.70;;;;;;;2.71;100.00;96366.47;5076101;28;20048;-70
2023/12/06 08:01:50;;;;;;;9.15;3.33;;;;;;;2.66;100.00;96372.06;5064075;28;20541;-70
2023/12/06 08:04:15;;;;;;;7.95;3.40;;;;;;;2.62;100.00;96369.22;5076205;28;20047;-70
2023/12/06 08:06:41;;;;;;;7.30;2.60;;;;;;;2.64;100.00;96377.00;5080951;28;20051;-70
2023/12/06 08:09:12;;;;;;;4.45;2.45;;;;;;;2.66;100.00;96385.59;5075891;28;20078;-70
2023/12/06 08:11:41;;;;;;;6.13;2.13;;;;;;;2.73;100.00;96383.19;5064940;28;20114;-71
2023/12/06 08:14:07;;;;;;;6.13;2.42;;;;;;;2.78;100.00;96387.63;5060913;28;20074;-69
2023/12/06 08:16:32;;;;;;;7.15;2.15;;;;;;;2.88;100.00;96379.13;5082891;28;20044;-70
2023/12/06 08:18:57;;;;;;;6.63;2.22;;;;;;;2.86;100.00;96387.59;5081003;28;20103;-70
2023/12/06 08:21:24;;;;;;;4.90;1.70;;;;;;;2.94;100.00;96383.28;5069540;28;20428;-70
2023/12/06 08:23:49;;;;;;;6.40;2.47;;;;;;;2.83;100.00;96388.25;5077928;28;20028;-72
2023/12/06 08:26:15;;;;;;;7.15;1.90;;;;;;;2.81;100.00;96393.19;5074427;28;20131;-71
2023/12/06 08:28:40;;;;;;;5.82;2.15;;;;;;;3.03;100.00;96392.13;5072136;28;20040;-71
2023/12/06 08:31:08;;;;;;;3.38;2.03;;;;;;;2.97;100.00;96388.03;5078895;28;20572;-70
2023/12/06 08:33:33;;;;;;;3.80;2.20;;;;;;;2.98;100.00;96388.81;5087866;28;20040;-71
2023/12/06 08:35:59;;;;;;;6.15;1.80;;;;;;;3.06;100.00;96391.50;5078622;28;20040;-70
2023/12/06 08:38:24;;;;;;;5.07;2.08;;;;;;;3.11;100.00;96397.84;5072449;28;20429;-70
2023/12/06 08:40:49;;;;;;;2.78;1.83;;;;;;;3.10;100.00;96396.25;5085128;28;20142;-71
2023/12/06 08:43:15;;;;;;;4.47;2.33;;;;;;;3.09;100.00;96400.88;5074683;28;20052;-71
2023/12/06 08:45:40;;;;;;;4.50;2.17;;;;;;;3.17;100.00;96405.47;5080700;28;20075;-70
2023/12/06 08:48:06;;;;;;;5.70;2.30;;;;;;;3.29;100.00;96404.75;5075552;28;20040;-71
2023/12/06 08:50:31;;;;;;;8.32;2.88;;;;;;;3.27;100.00;96408.91;5063913;28;20700;-72
2023/12/06 08:52:56;;;;;;;4.85;1.95;;;;;;;3.41;100.00;96412.19;5081779;28;20080;-71
2023/12/06 08:55:22;;;;;;;3.33;2.28;;;;;;;3.47;100.00;96413.56;5068148;28;20792;-71
2023/12/06 08:57:47;;;;;;;5.15;2.33;;;;;;;3.48;100.00;96407.03;5080611;28;20071;-71
2023/12/06 09:00:13;;;;;;;6.18;2.45;;;;;;;3.39;100.00;96412.50;5074921;28;20036;-71
2023/12/06 09:02:40;;;;;;;3.97;2.40;;;;;;;3.53;100.00;96411.47;5079850;28;20070;-71
2023/12/06 09:05:06;;;;;;;4.32;2.83;;;;;;;3.40;100.00;96419.53;5066022;28;20044;-70
2023/12/06 09:07:31;;;;;;;4.97;2.60;;;;;;;3.29;100.00;96420.19;5085665;28;20047;-70
2023/12/06 09:09:57;;;;;;;8.52;2.92;;;;;;;3.31;100.00;96420.66;5084986;28;20036;-71
2023/12/06 09:12:22;;;;;;;5.18;2.65;;;;;;;3.45;100.00;96421.22;5068566;28;20565;-71
2023/12/06 09:14:48;;;;;;;3.92;2.42;;;;;;;3.47;100.00;96418.97;5079681;28;20244;-71
2023/12/06 09:17:13;;;;;;;4.88;2.30;;;;;;;3.41;100.00;96423.00;5076174;28;20039;-72
2023/12/06 09:19:38;;;;;;;7.10;2.80;;;;;;;3.24;100.00;96427.41;5073592;28;20147;-71
2023/12/06 09:22:05;;;;;;;6.47;2.70;;;;;;;3.41;100.00;96426.50;5078808;28;20079;-71
2023/12/06 09:24:31;;;;;;;5.85;2.58;;;;;;;3.25;100.00;96426.25;5062392;28;20436;-71
2023/12/06 09:26:56;;;;;;;7.55;2.65;;;;;;;3.22;100.00;96431.53;5078988;28;20048;-70
2023/12/06 09:29:22;;;;;;;4.10;2.33;;;;;;;3.37;100.00;96435.63;5056569;28;20823;-70
2023/12/06 09:31:47;;;;;;;7.60;2.47;;;;;;;3.45;100.00;96437.47;5080494;28;20060;-71
2023/12/06 09:34:13;;;;;;;3.13;2.20;;;;;;;3.54;100.00;96434.72;5075236;28;20036;-71
2023/12/06 09:36:39;;;;;;;7.03;2.67;;;;;;;3.54;100.00;96437.44;5062627;28;20036;-71
2023/12/06 09:39:04;;;;;;;4.55;2.63;;;;;;;3.69;100.00;96436.88;5075807;28;20039;-71
2023/12/06 09:41:32;;;;;;;6.95;2.78;;;;;;;3.80;100.00;96434.59;5071329;28;20037;-71
2023/12/06 09:43:59;;;;;;;6.15;2.63;;;;;;;3.80;100.00;96432.66;5082106;28;20103;-71
2023/12/06 09:46:24;;;;;;;8.10;3.10;;;;;;;3.69;100.00;96439.59;5080473;28;20051;-71
2023/12/06 09:48:50;;;;;;;5.18;2.80;;;;;;;3.74;100.00;96441.28;5064781;28;20422;-70
2023/12/06 09:51:16;;;;;;;7.95;2.45;;;;;;;3.79;100.00;96431.06;5051455;28;20055;-71
2023/12/06 09:53:41;;;;;;;7.28;2.40;;;;;;;3.61;100.00;96433.09;5089369;28;20108;-71
2023/12/06 09:56:08;;;;;;;4.30;2.40;;;;;;;3.53;100.00;96433.13;5089219;28;20047;-71
2023/12/06 09:58:34;;;;;;;6.07;2.70;;;;;;;3.42;100.00;96430.81;5074337;28;20456;-71
2023/12/06 10:01:01;;;;;;;5.75;2.67;;;;;;;3.53;100.00;96435.84;5082082;28;20070;-71
2023/12/06 10:03:27;;;;;;;8.95;4.25;;;;;;;3.55;100.00;96439.03;5078201;28;20048;-71
2023/12/06 10:05:55;;;;;;;5.55;3.00;;;;;;;3.51;100.00;96438.06;5084817;28;20107;-71
2023/12/06 10:08:20;;;;;;;6.63;2.92;;;;;;;3.47;100.00;96435.22;5079963;28;20040;-70
2023/12/06 10:10:46;;;;;;;7.68;2.55;;;;;;;3.47;100.00;96432.53;5082853;28;20040;-70
2023/12/06 10:13:11;;;;;;;5.57;2.80;;;;;;;3.34;100.00;96438.97;5075344;28;20154;-70
2023/12/06 10:15:37;;;;;;;4.43;2.92;;;;;;;3.29;100.00;96431.81;5071865;28;20051;-70
2023/12/06 10:18:03;;;;;;;4.85;3.15;;;;;;;3.26;100.00;96427.06;5088337;28;20051;-70
2023/12/06 10:20:29;;;;;;;7.65;3.72;;;;;;;3.22;100.00;96431.53;5100129;28;20135;-70
2023/12/06 10:22:55;;;;;;;7.63;3.03;;;;;;;3.30;100.00;96446.94;5082644;28;20389;-70
2023/12/06 10:25:20;;;;;;;9.55;3.72;;;;;;;3.28;100.00;96434.84;5075359;28;20036;-70
2023/12/06 10:27:45;;;;;;;7.00;3.80;;;;;;;3.20;100.00;96434.56;5079812;28;20114;-70
2023/12/06 10:30:13;;;;;;;8.07;3.60;;;;;;;2.99;100.00;96436.38;5074420;28;20044;-70
2023/12/06 10:32:39;;;;;;;4.47;3.13;;;;;;;3.22;100.00;96442.34;5079446;28;20048;-71
2023/12/06 10:35:06;;;;;;;5.40;3.40;;;;;;;3.17;100.00;96442.53;5046671;28;20430;-70
2023/12/06 10:37:32;;;;;;;7.88;4.00;;;;;;;3.07;100.00;96438.28;5061572;28;20490;-71
2023/12/06 10:40:00;;;;;;;7.07;3.83;;;;;;;3.02;100.00;96439.25;5057599;28;20066;-70
2023/12/06 10:42:32;;;;;;;8.32;3.75;;;;;;;3.05;100.00;96433.19;5063661;28;20047;-70
2023/12/06 10:45:03;;;;;;;6.93;3.42;;;;;;;2.79;100.00;96430.59;5052261;28;20044;-70
2023/12/06 10:47:30;;;;;;;6.47;3.67;;;;;;;2.84;100.00;96430.38;5053062;28;20040;-70
2023/12/06 10:49:56;;;;;;;8.25;4.18;;;;;;;2.90;100.00;96432.91;5081957;28;20039;-70
2023/12/06 10:52:23;;;;;;;10.23;4.28;;;;;;;3.03;100.00;96430.03;5084410;28;20055;-70
2023/12/06 10:54:49;;;;;;;7.70;4.28;;;;;;;3.15;100.00;96431.25;5064081;28;20051;-70
2023/12/06 10:57:17;;;;;;;10.90;4.25;;;;;;;3.04;100.00;96426.22;5059045;28;20028;-71
2023/12/06 10:59:45;;;;;;;8.20;3.97;;;;;;;3.08;100.00;96428.25;5074710;28;20044;-71
2023/12/06 11:02:12;;;;;;;7.43;3.22;;;;;;;3.14;100.00;96426.97;5074756;28;20035;-71
2023/12/06 11:04:48;;;;;;;6.70;3.00;;;;;;;3.18;100.00;96428.69;5086531;28;20483;-72
2023/12/06 11:07:28;;;;;;;8.38;3.83;;;;;;;3.16;100.00;96419.31;5079455;28;20032;-70
2023/12/06 11:10:18;;;;;;;8.35;3.83;;;;;;;3.17;100.00;96427.09;5081537;28;20443;-70
2023/12/06 11:12:57;;;;;;;;;;;;;;;3.36;100.00;96426.69;5063925;28;20519;-70
2023/12/06 11:16:12;;;;;;;4.30;2.93;;;;;;;3.57;100.00;96426.75;5076833;28;20105;-70
2023/12/06 11:18:44;;;;;;;8.98;3.45;;;;;;;3.73;100.00;96426.19;5068341;28;20044;-71
2023/12/06 11:21:14;;;;;;;7.68;3.17;;;;;;;3.43;100.00;96431.59;5059608;28;20044;-69
2023/12/06 11:23:41;;;;;;;6.55;3.28;;;;;;;3.31;100.00;96431.50;5081086;28;20063;-70
2023/12/06 11:26:07;;;;;;;7.28;3.70;;;;;;;3.30;100.00;96428.00;5069980;28;20482;-70
2023/12/06 11:28:40;;;;;;;11.57;4.35;;;;;;;3.08;100.00;96425.53;5081145;28;20054;-72